createdAt,value
2017-05-08T00:00:27.657Z,0
2017-05-08T00:01:08.199Z,0
2017-05-08T00:01:48.739Z,0
2017-05-08T00:02:29.283Z,0
2017-05-08T00:03:09.831Z,0
2017-05-08T00:03:50.382Z,0
2017-05-08T00:04:30.933Z,0
2017-05-08T00:05:11.477Z,0
2017-05-08T00:05:52.025Z,0
2017-05-08T00:06:32.571Z,0
2017-05-08T00:07:13.121Z,0
2017-05-08T00:07:53.660Z,0
2017-05-08T00:08:34.200Z,0
2017-05-08T00:09:14.761Z,0
2017-05-08T00:09:55.290Z,0
2017-05-08T00:10:35.822Z,0
2017-05-08T00:11:16.369Z,0
2017-05-08T00:11:56.910Z,0
2017-05-08T00:12:37.452Z,0
2017-05-08T00:13:18.002Z,0
2017-05-08T00:13:58.548Z,0
2017-05-08T00:14:39.094Z,0
2017-05-08T00:15:19.645Z,0
2017-05-08T00:16:00.189Z,0
2017-05-08T00:16:40.749Z,0
2017-05-08T00:17:21.299Z,0
2017-05-08T00:18:01.841Z,0
2017-05-08T00:18:42.400Z,0
2017-05-08T00:19:22.972Z,0
2017-05-08T00:20:03.502Z,0
2017-05-08T00:20:44.060Z,0
2017-05-08T00:21:24.614Z,0
2017-05-08T00:22:05.158Z,0
2017-05-08T00:22:45.704Z,0
2017-05-08T00:23:26.254Z,0
2017-05-08T00:24:06.796Z,0
2017-05-08T00:24:47.349Z,0
2017-05-08T00:25:27.898Z,0
2017-05-08T00:26:08.450Z,0
2017-05-08T00:26:48.997Z,0
2017-05-08T00:27:29.544Z,0
2017-05-08T00:28:10.086Z,0
2017-05-08T00:28:50.626Z,0
2017-05-08T00:29:31.174Z,0
2017-05-08T00:30:11.730Z,0
2017-05-08T00:30:52.255Z,0
2017-05-08T00:31:32.794Z,0
2017-05-08T00:32:13.337Z,0
2017-05-08T00:32:53.878Z,0
2017-05-08T00:33:34.414Z,0
2017-05-08T00:34:14.956Z,0
2017-05-08T00:34:55.499Z,0
2017-05-08T00:35:36.047Z,0
2017-05-08T00:36:16.583Z,0
2017-05-08T00:36:57.111Z,0
2017-05-08T00:37:37.649Z,0
2017-05-08T00:38:18.194Z,0
2017-05-08T00:38:58.769Z,0
2017-05-08T00:39:39.284Z,0
2017-05-08T00:40:19.832Z,0
2017-05-08T00:41:00.374Z,0
2017-05-08T00:41:40.926Z,0
2017-05-08T00:42:21.474Z,0
2017-05-08T00:43:02.017Z,0
2017-05-08T00:43:42.587Z,0
2017-05-08T00:44:23.120Z,0
2017-05-08T00:45:03.672Z,0
2017-05-08T00:45:44.239Z,0
2017-05-08T00:46:24.790Z,0
2017-05-08T00:47:05.345Z,0
2017-05-08T00:47:45.885Z,0
2017-05-08T00:48:26.435Z,0
2017-05-08T00:49:06.986Z,0
2017-05-08T00:49:47.539Z,0
2017-05-08T00:50:28.087Z,0
2017-05-08T00:51:08.640Z,0
2017-05-08T00:51:49.186Z,0
2017-05-08T00:52:29.741Z,0
2017-05-08T00:53:10.283Z,0
2017-05-08T00:53:50.831Z,0
2017-05-08T00:54:31.393Z,0
2017-05-08T00:55:11.933Z,0
2017-05-08T00:55:52.480Z,0
2017-05-08T00:56:33.025Z,0
2017-05-08T00:57:13.565Z,0
2017-05-08T00:57:54.106Z,0
2017-05-08T00:58:34.657Z,0
2017-05-08T00:59:15.184Z,0
2017-05-08T00:59:55.730Z,0
2017-05-08T01:00:36.285Z,0
2017-05-08T01:01:16.829Z,0
2017-05-08T01:01:57.379Z,0
2017-05-08T01:02:37.928Z,0
2017-05-08T01:03:18.484Z,0
2017-05-08T01:03:59.028Z,0
2017-05-08T01:04:39.577Z,0
2017-05-08T01:05:20.115Z,0
2017-05-08T01:06:00.664Z,0
2017-05-08T01:06:41.200Z,0
2017-05-08T01:07:21.756Z,0
2017-05-08T01:08:02.294Z,0
2017-05-08T01:08:42.851Z,0
2017-05-08T01:09:23.396Z,0
2017-05-08T01:10:03.943Z,0
2017-05-08T01:10:44.484Z,0
2017-05-08T01:11:25.036Z,0
2017-05-08T01:12:05.577Z,0
2017-05-08T01:12:46.123Z,0
2017-05-08T01:13:26.651Z,0
2017-05-08T01:14:07.194Z,0
2017-05-08T01:14:47.744Z,0
2017-05-08T01:15:28.281Z,0
2017-05-08T01:16:08.821Z,0
2017-05-08T01:16:49.376Z,0
2017-05-08T01:17:29.927Z,0
2017-05-08T01:18:10.470Z,0
2017-05-08T01:18:51.020Z,0
2017-05-08T01:19:31.571Z,0
2017-05-08T01:20:12.112Z,0
2017-05-08T01:20:52.654Z,0
2017-05-08T01:21:33.199Z,0
2017-05-08T01:22:13.749Z,0
2017-05-08T01:22:54.300Z,0
2017-05-08T01:23:34.849Z,0
2017-05-08T01:24:15.399Z,0
2017-05-08T01:24:55.946Z,0
2017-05-08T01:25:36.487Z,0
2017-05-08T01:26:17.033Z,0
2017-05-08T01:26:57.571Z,0
2017-05-08T01:27:38.112Z,0
2017-05-08T01:28:18.659Z,0
2017-05-08T01:28:59.208Z,0
2017-05-08T01:29:39.755Z,0
2017-05-08T01:30:20.300Z,0
2017-05-08T01:31:00.846Z,0
2017-05-08T01:31:41.381Z,0
2017-05-08T01:32:21.937Z,0
2017-05-08T01:33:02.485Z,0
2017-05-08T01:33:43.034Z,0
2017-05-08T01:34:23.584Z,0
2017-05-08T01:35:04.138Z,0
2017-05-08T01:35:44.698Z,0
2017-05-08T01:36:25.233Z,0
2017-05-08T01:37:05.783Z,0
2017-05-08T01:37:46.341Z,0
2017-05-08T01:38:26.883Z,0
2017-05-08T01:39:07.430Z,0
2017-05-08T01:39:47.987Z,0
2017-05-08T01:40:28.541Z,0
2017-05-08T01:41:09.090Z,0
2017-05-08T01:41:49.643Z,0
2017-05-08T01:42:30.197Z,0
2017-05-08T01:43:10.748Z,0
2017-05-08T01:43:51.308Z,0
2017-05-08T01:44:31.854Z,0
2017-05-08T01:45:12.399Z,0
2017-05-08T01:45:52.954Z,0
2017-05-08T01:46:33.502Z,0
2017-05-08T01:47:14.054Z,0
2017-05-08T01:47:54.604Z,0
2017-05-08T01:48:42.104Z,0
2017-05-08T01:49:22.635Z,0
2017-05-08T01:50:03.176Z,0
2017-05-08T01:50:43.708Z,0
2017-05-08T01:51:24.246Z,0
2017-05-08T01:52:04.780Z,0
2017-05-08T01:52:45.319Z,0
2017-05-08T01:53:25.854Z,0
2017-05-08T01:54:06.395Z,0
2017-05-08T01:54:46.930Z,0
2017-05-08T01:55:27.467Z,0
2017-05-08T01:56:07.998Z,0
2017-05-08T01:56:48.533Z,0
2017-05-08T01:57:29.068Z,0
2017-05-08T01:58:09.605Z,0
2017-05-08T01:58:50.143Z,0
2017-05-08T01:59:30.679Z,0
2017-05-08T02:00:11.215Z,0
2017-05-08T02:00:51.750Z,0
2017-05-08T02:01:32.289Z,0
2017-05-08T02:02:12.822Z,0
2017-05-08T02:02:53.355Z,0
2017-05-08T02:03:33.896Z,0
2017-05-08T02:04:14.439Z,0
2017-05-08T02:04:54.963Z,0
2017-05-08T02:05:35.502Z,0
2017-05-08T02:06:16.036Z,0
2017-05-08T02:06:56.571Z,0
2017-05-08T02:07:37.112Z,0
2017-05-08T02:08:17.638Z,0
2017-05-08T02:08:58.170Z,0
2017-05-08T02:09:38.706Z,0
2017-05-08T02:10:19.239Z,0
2017-05-08T02:10:59.772Z,0
2017-05-08T02:11:40.310Z,0
2017-05-08T02:12:20.848Z,0
2017-05-08T02:13:01.393Z,0
2017-05-08T02:13:41.921Z,0
2017-05-08T02:14:22.461Z,0
2017-05-08T02:15:03.000Z,0
2017-05-08T02:15:43.536Z,0
2017-05-08T02:16:24.078Z,0
2017-05-08T02:17:04.613Z,0
2017-05-08T02:17:45.156Z,0
2017-05-08T02:18:25.686Z,0
2017-05-08T02:19:06.217Z,0
2017-05-08T02:19:46.752Z,0
2017-05-08T02:20:27.284Z,0
2017-05-08T02:21:07.818Z,0
2017-05-08T02:21:48.349Z,0
2017-05-08T02:22:28.889Z,0
2017-05-08T02:23:09.421Z,0
2017-05-08T02:23:49.957Z,0
2017-05-08T02:24:30.493Z,0
2017-05-08T02:25:11.048Z,0
2017-05-08T02:25:51.572Z,0
2017-05-08T02:26:32.114Z,0
2017-05-08T02:27:12.651Z,0
2017-05-08T02:27:53.182Z,0
2017-05-08T02:28:33.719Z,0
2017-05-08T02:29:14.251Z,0
2017-05-08T02:29:54.797Z,0
2017-05-08T02:30:35.338Z,0
2017-05-08T02:31:15.872Z,0
2017-05-08T02:31:56.409Z,0
2017-05-08T02:32:36.937Z,0
2017-05-08T02:33:17.471Z,0
2017-05-08T02:33:58.005Z,0
2017-05-08T02:34:38.542Z,0
2017-05-08T02:35:19.078Z,0
2017-05-08T02:35:59.609Z,0
2017-05-08T02:36:40.143Z,0
2017-05-08T02:37:20.676Z,0
2017-05-08T02:38:01.211Z,0
2017-05-08T02:38:41.748Z,0
2017-05-08T02:39:22.282Z,0
2017-05-08T02:40:02.815Z,0
2017-05-08T02:40:43.342Z,0
2017-05-08T02:41:23.875Z,0
2017-05-08T02:42:04.409Z,0
2017-05-08T02:42:44.947Z,0
2017-05-08T02:43:25.481Z,0
2017-05-08T02:44:06.016Z,0
2017-05-08T02:44:46.555Z,0
2017-05-08T02:45:27.084Z,0
2017-05-08T02:46:07.622Z,0
2017-05-08T02:46:48.153Z,0
2017-05-08T02:47:28.688Z,0
2017-05-08T02:48:09.230Z,0
2017-05-08T02:48:49.783Z,0
2017-05-08T02:49:30.322Z,0
2017-05-08T02:50:10.855Z,0
2017-05-08T02:50:51.388Z,0
2017-05-08T02:51:31.923Z,0
2017-05-08T02:52:12.458Z,0
2017-05-08T02:52:52.992Z,0
2017-05-08T02:53:33.526Z,0
2017-05-08T02:54:14.065Z,0
2017-05-08T02:54:54.590Z,0
2017-05-08T02:55:35.137Z,0
2017-05-08T02:56:15.672Z,0
2017-05-08T02:56:56.209Z,0
2017-05-08T02:57:36.746Z,0
2017-05-08T02:58:17.290Z,0
2017-05-08T02:58:57.816Z,0
2017-05-08T02:59:38.358Z,0
2017-05-08T03:00:18.893Z,0
2017-05-08T03:00:59.426Z,0
2017-05-08T03:01:39.966Z,0
2017-05-08T03:02:20.499Z,0
2017-05-08T03:03:01.031Z,0
2017-05-08T03:03:41.564Z,0
2017-05-08T03:04:22.088Z,0
2017-05-08T03:05:02.631Z,0
2017-05-08T03:05:43.167Z,0
2017-05-08T03:06:23.703Z,0
2017-05-08T03:07:04.239Z,0
2017-05-08T03:07:44.769Z,0
2017-05-08T03:08:25.303Z,0
2017-05-08T03:09:05.844Z,0
2017-05-08T03:09:46.374Z,0
2017-05-08T03:10:26.908Z,0
2017-05-08T03:11:07.449Z,0
2017-05-08T03:11:47.987Z,0
2017-05-08T03:12:28.508Z,0
2017-05-08T03:13:09.045Z,0
2017-05-08T03:13:49.579Z,0
2017-05-08T03:14:30.112Z,0
2017-05-08T03:15:10.646Z,0
2017-05-08T03:15:51.174Z,0
2017-05-08T03:16:31.707Z,0
2017-05-08T03:17:12.238Z,0
2017-05-08T03:17:52.774Z,0
2017-05-08T03:18:33.311Z,0
2017-05-08T03:19:13.851Z,0
2017-05-08T03:19:54.394Z,0
2017-05-08T03:20:34.914Z,0
2017-05-08T03:21:15.449Z,0
2017-05-08T03:21:55.986Z,0
2017-05-08T03:22:36.524Z,0
2017-05-08T03:23:17.066Z,0
2017-05-08T03:23:57.602Z,0
2017-05-08T03:24:38.147Z,0
2017-05-08T03:25:18.678Z,0
2017-05-08T03:25:59.211Z,0
2017-05-08T03:26:39.740Z,0
2017-05-08T03:27:20.280Z,0
2017-05-08T03:28:00.816Z,0
2017-05-08T03:28:41.350Z,0
2017-05-08T03:29:21.886Z,0
2017-05-08T03:30:02.412Z,0
2017-05-08T03:30:42.932Z,0
2017-05-08T03:31:23.483Z,0
2017-05-08T03:32:04.022Z,0
2017-05-08T03:32:44.553Z,0
2017-05-08T03:33:25.088Z,0
2017-05-08T03:34:05.618Z,0
2017-05-08T03:34:46.154Z,0
2017-05-08T03:35:26.687Z,0
2017-05-08T03:36:07.224Z,0
2017-05-08T03:36:47.756Z,0
2017-05-08T03:37:28.286Z,0
2017-05-08T03:38:08.823Z,0
2017-05-08T03:38:49.357Z,0
2017-05-08T03:39:29.919Z,0
2017-05-08T03:40:10.443Z,0
2017-05-08T03:40:50.979Z,0
2017-05-08T03:41:31.519Z,0
2017-05-08T03:42:12.060Z,0
2017-05-08T03:42:52.599Z,0
2017-05-08T03:43:33.130Z,0
2017-05-08T03:44:13.666Z,0
2017-05-08T03:44:54.200Z,0
2017-05-08T03:45:34.735Z,0
2017-05-08T03:46:15.274Z,0
2017-05-08T03:46:55.813Z,0
2017-05-08T03:47:36.347Z,0
2017-05-08T03:48:16.878Z,0
2017-05-08T03:48:57.414Z,0
2017-05-08T03:49:37.948Z,0
2017-05-08T03:50:18.498Z,0
2017-05-08T03:50:59.039Z,0
2017-05-08T03:51:39.571Z,0
2017-05-08T03:52:20.087Z,0
2017-05-08T03:53:00.625Z,0
2017-05-08T03:53:41.158Z,0
2017-05-08T03:54:21.691Z,0
2017-05-08T03:55:02.233Z,0
2017-05-08T03:55:42.762Z,0
2017-05-08T03:56:23.303Z,0
2017-05-08T03:57:04.367Z,0
2017-05-08T03:57:44.902Z,0
2017-05-08T03:58:25.434Z,0
2017-05-08T03:59:05.968Z,0
2017-05-08T03:59:46.499Z,0
2017-05-08T04:00:27.041Z,0
2017-05-08T04:01:07.567Z,0
2017-05-08T04:01:48.198Z,0
2017-05-08T04:02:28.674Z,0
2017-05-08T04:03:09.207Z,0
2017-05-08T04:03:49.745Z,0
2017-05-08T04:04:30.284Z,0
2017-05-08T04:05:10.824Z,0
2017-05-08T04:05:51.362Z,0
2017-05-08T04:06:31.901Z,5
2017-05-08T04:07:12.431Z,5
2017-05-08T04:07:52.965Z,5
2017-05-08T04:08:33.498Z,5
2017-05-08T04:09:14.033Z,5
2017-05-08T04:09:54.566Z,5
2017-05-08T04:10:35.105Z,5
2017-05-08T04:11:15.639Z,5
2017-05-08T04:11:56.167Z,5
2017-05-08T04:12:36.705Z,5
2017-05-08T04:13:17.243Z,5
2017-05-08T04:13:57.791Z,0
2017-05-08T04:14:38.333Z,5
2017-05-08T04:15:18.869Z,5
2017-05-08T04:15:59.402Z,5
2017-05-08T04:16:39.942Z,5
2017-05-08T04:17:20.477Z,5
2017-05-08T04:18:01.029Z,5
2017-05-08T04:18:41.567Z,5
2017-05-08T04:19:22.201Z,5
2017-05-08T04:20:02.637Z,5
2017-05-08T04:20:43.169Z,5
2017-05-08T04:21:23.705Z,5
2017-05-08T04:22:04.232Z,5
2017-05-08T04:22:44.769Z,5
2017-05-08T04:23:25.302Z,5
2017-05-08T04:24:06.168Z,5
2017-05-08T04:24:46.571Z,5
2017-05-08T04:25:27.111Z,5
2017-05-08T04:26:07.642Z,5
2017-05-08T04:26:48.168Z,5
2017-05-08T04:27:28.704Z,5
2017-05-08T04:28:09.246Z,5
2017-05-08T04:28:49.785Z,5
2017-05-08T04:29:30.335Z,5
2017-05-08T04:30:10.869Z,5
2017-05-08T04:30:51.418Z,5
2017-05-08T04:31:31.927Z,5
2017-05-08T04:32:12.454Z,5
2017-05-08T04:32:52.989Z,5
2017-05-08T04:33:33.528Z,5
2017-05-08T04:34:14.058Z,5
2017-05-08T04:34:54.587Z,5
2017-05-08T04:35:35.126Z,5
2017-05-08T04:36:15.657Z,5
2017-05-08T04:36:56.191Z,5
2017-05-08T04:37:36.731Z,5
2017-05-08T04:38:17.275Z,5
2017-05-08T04:38:57.798Z,5
2017-05-08T04:39:38.455Z,5
2017-05-08T04:40:18.981Z,5
2017-05-08T04:40:59.515Z,5
2017-05-08T04:41:40.045Z,5
2017-05-08T04:42:20.577Z,5
2017-05-08T04:43:01.097Z,5
2017-05-08T04:43:41.632Z,5
2017-05-08T04:44:22.169Z,10
2017-05-08T04:45:02.707Z,10
2017-05-08T04:45:43.244Z,10
2017-05-08T04:46:23.785Z,10
2017-05-08T04:47:04.296Z,10
2017-05-08T04:47:44.835Z,10
2017-05-08T04:48:25.367Z,5
2017-05-08T04:49:05.901Z,5
2017-05-08T04:49:46.447Z,10
2017-05-08T04:50:26.989Z,10
2017-05-08T04:51:07.512Z,10
2017-05-08T04:51:48.053Z,10
2017-05-08T04:52:28.591Z,10
2017-05-08T04:53:09.125Z,10
2017-05-08T04:53:49.663Z,10
2017-05-08T04:54:30.207Z,10
2017-05-08T04:55:10.744Z,10
2017-05-08T04:55:51.292Z,10
2017-05-08T04:56:31.806Z,10
2017-05-08T04:57:12.357Z,10
2017-05-08T04:57:52.881Z,10
2017-05-08T04:58:33.415Z,10
2017-05-08T04:59:13.960Z,10
2017-05-08T04:59:54.491Z,10
2017-05-08T05:00:35.017Z,10
2017-05-08T05:01:15.551Z,10
2017-05-08T05:01:56.092Z,10
2017-05-08T05:02:36.624Z,10
2017-05-08T05:03:17.148Z,10
2017-05-08T05:03:57.663Z,10
2017-05-08T05:04:38.199Z,10
2017-05-08T05:05:18.735Z,10
2017-05-08T05:05:59.300Z,10
2017-05-08T05:06:39.833Z,15
2017-05-08T05:07:20.387Z,15
2017-05-08T05:08:00.920Z,15
2017-05-08T05:08:41.464Z,15
2017-05-08T05:09:22.012Z,15
2017-05-08T05:10:02.526Z,15
2017-05-08T05:10:43.059Z,15
2017-05-08T05:11:23.595Z,15
2017-05-08T05:12:04.154Z,15
2017-05-08T05:12:44.688Z,15
2017-05-08T05:13:25.244Z,15
2017-05-08T05:14:05.786Z,15
2017-05-08T05:14:46.324Z,15
2017-05-08T05:15:26.868Z,15
2017-05-08T05:16:07.403Z,15
2017-05-08T05:16:47.939Z,15
2017-05-08T05:17:28.471Z,15
2017-05-08T05:18:09.002Z,15
2017-05-08T05:18:49.541Z,15
2017-05-08T05:19:30.076Z,15
2017-05-08T05:20:10.643Z,15
2017-05-08T05:20:51.179Z,15
2017-05-08T05:21:31.713Z,15
2017-05-08T05:22:12.241Z,20
2017-05-08T05:22:52.757Z,20
2017-05-08T05:23:33.293Z,20
2017-05-08T05:24:13.831Z,20
2017-05-08T05:24:54.367Z,20
2017-05-08T05:25:34.901Z,20
2017-05-08T05:26:15.434Z,20
2017-05-08T05:26:55.967Z,20
2017-05-08T05:27:36.500Z,20
2017-05-08T05:28:17.037Z,20
2017-05-08T05:28:57.574Z,20
2017-05-08T05:29:38.113Z,20
2017-05-08T05:30:18.635Z,20
2017-05-08T05:30:59.218Z,25
2017-05-08T05:31:39.795Z,25
2017-05-08T05:32:20.340Z,25
2017-05-08T05:33:00.881Z,25
2017-05-08T05:33:41.425Z,30
2017-05-08T05:34:22.004Z,25
2017-05-08T05:35:02.541Z,25
2017-05-08T05:35:43.082Z,30
2017-05-08T05:36:23.630Z,30
2017-05-08T05:37:04.160Z,30
2017-05-08T05:37:44.692Z,30
2017-05-08T05:38:25.226Z,30
2017-05-08T05:39:05.763Z,30
2017-05-08T05:39:46.347Z,30
2017-05-08T05:40:26.884Z,30
2017-05-08T05:41:07.417Z,30
2017-05-08T05:41:47.953Z,30
2017-05-08T05:42:28.501Z,30
2017-05-08T05:43:09.033Z,30
2017-05-08T05:43:49.587Z,30
2017-05-08T05:44:30.143Z,30
2017-05-08T05:45:10.690Z,25
2017-05-08T05:45:51.480Z,25
2017-05-08T05:46:32.075Z,25
2017-05-08T05:47:12.601Z,25
2017-05-08T05:47:53.137Z,25
2017-05-08T05:48:33.673Z,25
2017-05-08T05:49:14.203Z,25
2017-05-08T05:49:54.744Z,25
2017-05-08T05:50:35.271Z,25
2017-05-08T05:51:15.799Z,25
2017-05-08T05:51:56.330Z,25
2017-05-08T05:52:36.870Z,25
2017-05-08T05:53:17.415Z,25
2017-05-08T05:53:57.949Z,25
2017-05-08T05:54:38.483Z,25
2017-05-08T05:55:19.018Z,30
2017-05-08T05:55:59.547Z,30
2017-05-08T05:56:40.083Z,30
2017-05-08T05:57:20.619Z,30
2017-05-08T05:58:01.160Z,30
2017-05-08T05:58:41.702Z,30
2017-05-08T05:59:22.236Z,30
2017-05-08T06:00:02.771Z,30
2017-05-08T06:00:43.302Z,35
2017-05-08T06:01:23.838Z,35
2017-05-08T06:02:04.374Z,35
2017-05-08T06:02:44.914Z,35
2017-05-08T06:03:25.448Z,35
2017-05-08T06:04:05.981Z,35
2017-05-08T06:04:46.504Z,35
2017-05-08T06:05:27.049Z,35
2017-05-08T06:06:07.588Z,35
2017-05-08T06:06:48.117Z,35
2017-05-08T06:07:28.691Z,40
2017-05-08T06:08:09.228Z,35
2017-05-08T06:08:49.763Z,40
2017-05-08T06:09:30.284Z,40
2017-05-08T06:10:10.814Z,40
2017-05-08T06:10:51.349Z,45
2017-05-08T06:11:31.936Z,45
2017-05-08T06:12:12.473Z,40
2017-05-08T06:12:53.011Z,40
2017-05-08T06:13:33.555Z,40
2017-05-08T06:14:14.087Z,40
2017-05-08T06:14:54.625Z,40
2017-05-08T06:15:35.166Z,40
2017-05-08T06:16:15.695Z,40
2017-05-08T06:16:56.231Z,40
2017-05-08T06:17:36.757Z,40
2017-05-08T06:18:17.290Z,35
2017-05-08T06:18:57.832Z,35
2017-05-08T06:19:38.367Z,40
2017-05-08T06:20:18.905Z,35
2017-05-08T06:20:59.436Z,35
2017-05-08T06:21:39.970Z,35
2017-05-08T06:22:20.508Z,35
2017-05-08T06:23:01.041Z,40
2017-05-08T06:23:41.580Z,40
2017-05-08T06:24:22.121Z,40
2017-05-08T06:25:02.657Z,40
2017-05-08T06:25:43.191Z,40
2017-05-08T06:26:23.731Z,40
2017-05-08T06:27:04.269Z,40
2017-05-08T06:27:44.801Z,40
2017-05-08T06:28:25.343Z,45
2017-05-08T06:29:05.888Z,45
2017-05-08T06:29:46.435Z,50
2017-05-08T06:30:26.959Z,50
2017-05-08T06:31:07.496Z,50
2017-05-08T06:31:48.038Z,45
2017-05-08T06:32:28.558Z,45
2017-05-08T06:33:09.104Z,50
2017-05-08T06:33:49.641Z,55
2017-05-08T06:34:30.181Z,55
2017-05-08T06:35:10.721Z,55
2017-05-08T06:35:51.260Z,60
2017-05-08T06:36:31.795Z,60
2017-05-08T06:37:12.338Z,60
2017-05-08T06:37:52.869Z,60
2017-05-08T06:38:33.405Z,60
2017-05-08T06:39:13.945Z,60
2017-05-08T06:39:54.495Z,65
2017-05-08T06:40:35.005Z,70
2017-05-08T06:41:15.541Z,70
2017-05-08T06:41:56.078Z,70
2017-05-08T06:42:36.624Z,70
2017-05-08T06:43:17.159Z,70
2017-05-08T06:43:57.698Z,70
2017-05-08T06:44:38.220Z,70
2017-05-08T06:45:18.754Z,70
2017-05-08T06:45:59.289Z,75
2017-05-08T06:46:39.822Z,80
2017-05-08T06:47:20.357Z,85
2017-05-08T06:48:00.892Z,90
2017-05-08T06:48:41.426Z,90
2017-05-08T06:49:21.959Z,90
2017-05-08T06:50:02.501Z,90
2017-05-08T06:50:43.041Z,90
2017-05-08T06:51:23.572Z,90
2017-05-08T06:52:04.116Z,90
2017-05-08T06:52:44.654Z,95
2017-05-08T06:53:25.194Z,105
2017-05-08T06:54:05.738Z,105
2017-05-08T06:54:46.270Z,105
2017-05-08T06:55:26.812Z,105
2017-05-08T06:56:07.351Z,100
2017-05-08T06:56:47.888Z,95
2017-05-08T06:57:28.420Z,90
2017-05-08T06:58:08.960Z,85
2017-05-08T06:58:49.500Z,90
2017-05-08T06:59:30.019Z,90
2017-05-08T07:00:10.556Z,90
2017-05-08T07:00:51.095Z,100
2017-05-08T07:01:31.640Z,115
2017-05-08T07:02:12.179Z,125
2017-05-08T07:02:52.713Z,130
2017-05-08T07:03:33.253Z,125
2017-05-08T07:04:13.781Z,115
2017-05-08T07:04:54.319Z,110
2017-05-08T07:05:34.856Z,105
2017-05-08T07:06:15.391Z,100
2017-05-08T07:06:55.939Z,95
2017-05-08T07:07:36.463Z,90
2017-05-08T07:08:17.002Z,85
2017-05-08T07:08:57.535Z,80
2017-05-08T07:09:38.070Z,70
2017-05-08T07:10:18.609Z,70
2017-05-08T07:10:59.135Z,65
2017-05-08T07:11:39.683Z,60
2017-05-08T07:12:20.245Z,60
2017-05-08T07:13:00.783Z,60
2017-05-08T07:13:41.333Z,65
2017-05-08T07:14:21.866Z,70
2017-05-08T07:15:02.392Z,80
2017-05-08T07:15:42.932Z,80
2017-05-08T07:16:23.470Z,80
2017-05-08T07:17:04.005Z,75
2017-05-08T07:17:44.548Z,85
2017-05-08T07:18:25.084Z,95
2017-05-08T07:19:05.619Z,100
2017-05-08T07:19:46.169Z,100
2017-05-08T07:20:26.708Z,105
2017-05-08T07:21:07.241Z,95
2017-05-08T07:21:47.784Z,100
2017-05-08T07:22:28.313Z,110
2017-05-08T07:23:08.862Z,115
2017-05-08T07:23:49.401Z,115
2017-05-08T07:24:29.943Z,105
2017-05-08T07:25:10.477Z,100
2017-05-08T07:25:51.016Z,95
2017-05-08T07:26:31.553Z,105
2017-05-08T07:27:12.091Z,120
2017-05-08T07:27:52.623Z,130
2017-05-08T07:28:33.152Z,130
2017-05-08T07:29:13.684Z,135
2017-05-08T07:29:54.228Z,135
2017-05-08T07:30:34.759Z,140
2017-05-08T07:31:15.284Z,165
2017-05-08T07:31:55.822Z,185
2017-05-08T07:32:36.361Z,205
2017-05-08T07:33:16.900Z,215
2017-05-08T07:33:57.439Z,215
2017-05-08T07:34:37.981Z,210
2017-05-08T07:35:18.514Z,220
2017-05-08T07:35:59.059Z,215
2017-05-08T07:36:39.583Z,210
2017-05-08T07:37:20.118Z,185
2017-05-08T07:38:00.666Z,155
2017-05-08T07:38:41.209Z,140
2017-05-08T07:39:21.744Z,125
2017-05-08T07:40:02.287Z,115
2017-05-08T07:40:42.825Z,90
2017-05-08T07:41:23.357Z,65
2017-05-08T07:42:03.899Z,55
2017-05-08T07:42:44.434Z,50
2017-05-08T07:43:24.972Z,45
2017-05-08T07:44:05.513Z,45
2017-05-08T07:44:46.041Z,40
2017-05-08T07:45:26.592Z,40
2017-05-08T07:46:07.118Z,40
2017-05-08T07:46:47.652Z,45
2017-05-08T07:47:28.191Z,45
2017-05-08T07:48:08.727Z,45
2017-05-08T07:48:49.277Z,45
2017-05-08T07:49:29.815Z,45
2017-05-08T07:50:10.349Z,50
2017-05-08T07:50:50.898Z,55
2017-05-08T07:51:31.415Z,55
2017-05-08T07:52:11.953Z,50
2017-05-08T07:52:52.488Z,45
2017-05-08T07:53:33.030Z,45
2017-05-08T07:54:13.569Z,55
2017-05-08T07:54:54.108Z,60
2017-05-08T07:55:34.652Z,60
2017-05-08T07:56:15.201Z,65
2017-05-08T07:56:55.742Z,70
2017-05-08T07:57:36.278Z,70
2017-05-08T07:58:16.813Z,70
2017-05-08T07:58:57.349Z,70
2017-05-08T07:59:37.887Z,70
2017-05-08T08:00:18.424Z,75
2017-05-08T08:00:58.964Z,80
2017-05-08T08:01:39.503Z,90
2017-05-08T08:02:20.041Z,95
2017-05-08T08:03:00.575Z,100
2017-05-08T08:03:41.110Z,105
2017-05-08T08:04:21.649Z,105
2017-05-08T08:05:02.198Z,105
2017-05-08T08:05:42.743Z,100
2017-05-08T08:06:23.278Z,90
2017-05-08T08:07:03.820Z,95
2017-05-08T08:07:44.363Z,105
2017-05-08T08:08:24.900Z,100
2017-05-08T08:09:05.419Z,120
2017-05-08T08:09:45.956Z,125
2017-05-08T08:10:26.496Z,125
2017-05-08T08:11:07.033Z,135
2017-05-08T08:11:47.567Z,135
2017-05-08T08:12:28.115Z,150
2017-05-08T08:13:08.641Z,165
2017-05-08T08:13:49.174Z,180
2017-05-08T08:14:29.711Z,200
2017-05-08T08:15:10.249Z,210
2017-05-08T08:15:50.782Z,220
2017-05-08T08:16:31.353Z,235
2017-05-08T08:17:11.889Z,250
2017-05-08T08:17:52.427Z,275
2017-05-08T08:18:32.970Z,345
2017-05-08T08:19:13.499Z,375
2017-05-08T08:19:54.034Z,395
2017-05-08T08:20:34.574Z,410
2017-05-08T08:21:15.107Z,400
2017-05-08T08:21:55.643Z,365
2017-05-08T08:22:36.190Z,360
2017-05-08T08:23:16.730Z,380
2017-05-08T08:23:57.264Z,405
2017-05-08T08:24:37.825Z,410
2017-05-08T08:25:18.332Z,410
2017-05-08T08:25:58.874Z,365
2017-05-08T08:26:39.412Z,310
2017-05-08T08:27:19.946Z,295
2017-05-08T08:28:00.490Z,265
2017-05-08T08:28:41.027Z,285
2017-05-08T08:29:21.544Z,310
2017-05-08T08:30:02.089Z,285
2017-05-08T08:30:42.626Z,275
2017-05-08T08:31:23.156Z,310
2017-05-08T08:32:03.701Z,300
2017-05-08T08:32:44.233Z,315
2017-05-08T08:33:24.769Z,325
2017-05-08T08:34:05.301Z,365
2017-05-08T08:34:45.841Z,370
2017-05-08T08:35:26.366Z,295
2017-05-08T08:36:06.904Z,250
2017-05-08T08:36:47.442Z,300
2017-05-08T08:37:27.984Z,345
2017-05-08T08:38:08.521Z,370
2017-05-08T08:38:49.048Z,360
2017-05-08T08:39:29.582Z,310
2017-05-08T08:40:10.120Z,225
2017-05-08T08:40:50.657Z,180
2017-05-08T08:41:31.205Z,150
2017-05-08T08:42:11.738Z,140
2017-05-08T08:42:52.268Z,145
2017-05-08T08:43:32.805Z,140
2017-05-08T08:44:13.379Z,135
2017-05-08T08:44:53.899Z,135
2017-05-08T08:45:34.434Z,125
2017-05-08T08:46:14.973Z,125
2017-05-08T08:46:55.511Z,120
2017-05-08T08:47:36.050Z,115
2017-05-08T08:48:16.594Z,120
2017-05-08T08:48:57.114Z,120
2017-05-08T08:49:37.649Z,120
2017-05-08T08:50:18.185Z,125
2017-05-08T08:50:58.721Z,125
2017-05-08T08:51:39.264Z,120
2017-05-08T08:52:19.797Z,115
2017-05-08T08:53:00.333Z,115
2017-05-08T08:53:40.866Z,125
2017-05-08T08:54:21.397Z,125
2017-05-08T08:55:01.935Z,125
2017-05-08T08:55:42.469Z,125
2017-05-08T08:56:23.009Z,130
2017-05-08T08:57:03.534Z,125
2017-05-08T08:57:44.100Z,115
2017-05-08T08:58:24.593Z,110
2017-05-08T08:59:05.141Z,110
2017-05-08T08:59:45.685Z,130
2017-05-08T09:00:26.228Z,125
2017-05-08T09:01:06.758Z,125
2017-05-08T09:01:47.307Z,135
2017-05-08T09:02:27.840Z,145
2017-05-08T09:03:08.385Z,150
2017-05-08T09:03:48.912Z,145
2017-05-08T09:04:29.449Z,130
2017-05-08T09:05:09.995Z,140
2017-05-08T09:05:50.529Z,145
2017-05-08T09:06:31.069Z,155
2017-05-08T09:07:11.609Z,160
2017-05-08T09:07:52.143Z,180
2017-05-08T09:08:32.679Z,195
2017-05-08T09:09:13.210Z,215
2017-05-08T09:09:53.746Z,230
2017-05-08T09:10:34.283Z,245
2017-05-08T09:11:14.816Z,260
2017-05-08T09:11:55.362Z,265
2017-05-08T09:12:35.883Z,265
2017-05-08T09:13:16.418Z,260
2017-05-08T09:13:56.956Z,275
2017-05-08T09:14:37.498Z,295
2017-05-08T09:15:18.036Z,305
2017-05-08T09:15:58.581Z,315
2017-05-08T09:16:39.094Z,315
2017-05-08T09:17:19.631Z,315
2017-05-08T09:18:00.158Z,320
2017-05-08T09:18:40.690Z,310
2017-05-08T09:19:21.235Z,300
2017-05-08T09:20:01.770Z,310
2017-05-08T09:20:42.305Z,305
2017-05-08T09:21:22.838Z,300
2017-05-08T09:22:03.377Z,305
2017-05-08T09:22:43.916Z,270
2017-05-08T09:23:24.454Z,220
2017-05-08T09:24:04.989Z,220
2017-05-08T09:24:45.527Z,220
2017-05-08T09:25:26.075Z,210
2017-05-08T09:26:06.598Z,195
2017-05-08T09:26:47.132Z,165
2017-05-08T09:27:27.653Z,145
2017-05-08T09:28:08.210Z,130
2017-05-08T09:28:48.742Z,120
2017-05-08T09:29:29.286Z,135
2017-05-08T09:30:09.832Z,130
2017-05-08T09:30:50.365Z,115
2017-05-08T09:31:30.898Z,115
2017-05-08T09:32:11.429Z,125
2017-05-08T09:32:51.958Z,135
2017-05-08T09:33:32.513Z,135
2017-05-08T09:34:13.048Z,145
2017-05-08T09:34:53.580Z,140
2017-05-08T09:35:34.111Z,140
2017-05-08T09:36:14.638Z,145
2017-05-08T09:36:55.172Z,155
2017-05-08T09:37:35.703Z,170
2017-05-08T09:38:16.244Z,190
2017-05-08T09:38:56.784Z,195
2017-05-08T09:39:37.319Z,200
2017-05-08T09:40:17.851Z,205
2017-05-08T09:40:58.377Z,200
2017-05-08T09:41:38.908Z,215
2017-05-08T09:42:19.447Z,210
2017-05-08T09:42:59.988Z,210
2017-05-08T09:43:40.528Z,205